Terminal Aerodrome Forecast
Issued by NWS

Home | Current Version | Previous Version | Text Only | Print | Product List | Glossary On
Versions: 1 2 3 4 5 6 7 8 9 10 11 12 13 14 15 16 17 18 19 20 21 22 23 24 25 26 27 28 29 30 31 32 33 34 35
000
FTUS45 KGJT 041814 AAA
TAFASE
TAF AMD
KASE 041814Z 0418/0518 33006KT P6SM VCSH BKN080
      TEMPO 0418/0421 -RA BKN050
     FM042100 26007KT P6SM VCTS SCT050 BKN080CB
     FM050200 17005KT P6SM VCSH SCT050 BKN080
     FM051600 36008KT P6SM -RA OVC030=

USA.gov is the U.S. government's official web portal to all federal, state and local government web resources and services.